Time;durP1;ratioP1;P1;durP2;ratioP2;P2;SDS_P1;SDS_P2;PMS_P1;PMS_P2;Temp;Humidity;BMP_temperature;BMP_pressure;BME280_temperature;BME280_humidity;BME280_pressure;Samples;Min_cycle;Max_cycle;Signal;HPM_P1;HPM_P2
2021/01/10 00:01:14;;;;;;;23.20;16.03;;;5.80;74.30;;;;;;5080289;28;20063;-60
2021/01/10 00:03:41;;;;;;;21.93;14.90;;;5.80;74.10;;;;;;5080857;28;20044;-60
2021/01/10 00:06:09;;;;;;;22.47;15.57;;;5.90;74.20;;;;;;5074698;28;20036;-60
2021/01/10 00:08:35;;;;;;;19.10;14.67;;;5.80;74.00;;;;;;5079096;28;20032;-60
2021/01/10 00:11:01;;;;;;;20.63;14.40;;;5.80;73.70;;;;;;5070692;28;20096;-60
2021/01/10 00:13:26;;;;;;;21.63;15.67;;;5.90;73.20;;;;;;5073700;28;20654;-60
2021/01/10 00:15:52;;;;;;;21.93;15.30;;;5.80;73.20;;;;;;5074650;28;20055;-58
2021/01/10 00:18:18;;;;;;;20.90;15.23;;;5.90;73.20;;;;;;5080468;28;20441;-59
2021/01/10 00:20:43;;;;;;;21.37;15.40;;;5.90;72.50;;;;;;5078711;28;20514;-60
2021/01/10 00:23:09;;;;;;;20.27;14.93;;;5.90;72.30;;;;;;5077805;28;20860;-60
2021/01/10 00:25:35;;;;;;;22.33;14.90;;;6.00;72.30;;;;;;5077627;28;20064;-60
2021/01/10 00:28:00;;;;;;;22.57;14.53;;;6.00;72.70;;;;;;5075168;28;20040;-60
2021/01/10 00:30:26;;;;;;;16.80;13.43;;;6.00;72.50;;;;;;5068719;28;20098;-60
2021/01/10 00:32:54;;;;;;;24.70;15.60;;;5.90;71.60;;;;;;5077935;28;20126;-60
2021/01/10 00:35:22;;;;;;;17.80;13.83;;;5.90;71.80;;;;;;5080776;28;20077;-60
2021/01/10 00:37:54;;;;;;;20.53;14.67;;;5.90;71.70;;;;;;5064857;28;20379;-61
2021/01/10 00:40:22;;;;;;;28.13;15.17;;;6.00;71.00;;;;;;5077756;28;20083;-61
2021/01/10 00:42:48;;;;;;;19.63;14.30;;;5.90;71.40;;;;;;5074573;28;20032;-60
2021/01/10 00:45:17;;;;;;;20.47;14.53;;;5.90;70.40;;;;;;5077005;28;20119;-61
2021/01/10 00:47:42;;;;;;;17.87;13.60;;;5.90;71.30;;;;;;5074242;28;20044;-61
2021/01/10 00:50:09;;;;;;;22.87;14.30;;;5.80;70.80;;;;;;5077373;28;20371;-61
2021/01/10 00:52:35;;;;;;;22.17;14.57;;;5.80;70.50;;;;;;5069294;28;20041;-60
2021/01/10 00:55:01;;;;;;;19.77;14.13;;;5.90;70.90;;;;;;5073661;28;20048;-61
2021/01/10 01:00:48;;;;;;;22.07;13.87;;;5.80;69.40;;;;;;5051740;28;20043;-61
2021/01/10 01:03:14;;;;;;;17.33;13.40;;;5.80;71.00;;;;;;5069613;28;20052;-61
2021/01/10 01:05:40;;;;;;;24.87;15.77;;;5.80;70.60;;;;;;5072213;28;20051;-61
2021/01/10 01:08:05;;;;;;;19.97;14.93;;;5.70;71.90;;;;;;5061897;28;20059;-61
2021/01/10 01:10:31;;;;;;;19.20;14.57;;;5.60;71.60;;;;;;5079358;28;20098;-61
2021/01/10 01:12:56;;;;;;;19.43;14.67;;;5.60;71.40;;;;;;5067590;28;20105;-61
2021/01/10 01:15:22;;;;;;;23.33;14.53;;;5.60;71.10;;;;;;5080578;28;20053;-60
2021/01/10 01:17:48;;;;;;;23.30;15.40;;;5.60;71.70;;;;;;5061467;28;20036;-61
2021/01/10 01:20:13;;;;;;;25.07;15.73;;;5.50;72.30;;;;;;5080719;28;20047;-61
2021/01/10 01:22:39;;;;;;;22.83;14.17;;;5.50;71.80;;;;;;5070956;28;20047;-61
2021/01/10 01:25:05;;;;;;;22.10;15.27;;;5.50;71.70;;;;;;5082684;28;20037;-62
2021/01/10 01:27:33;;;;;;;19.67;15.00;;;5.50;71.30;;;;;;5068171;28;20040;-60
2021/01/10 01:29:59;;;;;;;18.37;14.17;;;5.50;71.10;;;;;;5073111;28;20082;-60
2021/01/10 01:32:24;;;;;;;21.00;14.43;;;5.40;70.80;;;;;;5072094;28;20024;-61
2021/01/10 01:34:50;;;;;;;21.43;14.90;;;5.50;70.60;;;;;;5075960;28;20036;-60
2021/01/10 01:37:15;;;;;;;21.87;14.97;;;5.40;70.70;;;;;;5075278;28;20478;-61
2021/01/10 01:39:41;;;;;;;21.17;14.83;;;5.30;71.90;;;;;;5070683;28;20068;-61
2021/01/10 01:42:13;;;;;;;21.73;14.27;;;5.30;70.90;;;;;;5074391;28;20474;-60
2021/01/10 01:44:38;;;;;;;20.40;15.20;;;5.30;71.40;;;;;;5069312;28;20382;-60
2021/01/10 01:47:06;;;;;;;19.33;14.23;;;5.30;71.10;;;;;;5077842;28;20040;-60
2021/01/10 01:49:32;;;;;;;21.03;14.23;;;5.20;70.90;;;;;;5067511;28;20032;-61
2021/01/10 01:51:58;;;;;;;19.17;14.73;;;5.20;71.00;;;;;;5084464;28;20085;-61
2021/01/10 01:54:24;;;;;;;18.43;14.33;;;5.20;70.90;;;;;;5068525;28;20063;-60
2021/01/10 01:56:49;;;;;;;20.80;15.13;;;5.20;70.20;;;;;;5076443;28;20036;-60
2021/01/10 01:59:15;;;;;;;20.63;14.73;;;5.20;71.40;;;;;;5069040;28;20532;-61
2021/01/10 02:01:41;;;;;;;17.90;13.50;;;5.20;70.90;;;;;;5085852;28;20040;-61
2021/01/10 02:04:19;;;;;;;20.57;14.50;;;5.10;70.90;;;;;;5080180;28;20043;-61
2021/01/10 02:07:21;;;;;;;19.47;14.10;;;5.20;70.10;;;;;;5064563;28;20046;-60
2021/01/10 02:09:54;;;;;;;21.40;14.70;;;5.20;71.20;;;;;;5025394;28;20033;-61
2021/01/10 02:12:23;;;;;;;17.67;14.10;;;5.10;70.60;;;;;;5059836;28;20051;-62
2021/01/10 02:14:57;;;;;;;18.03;13.43;;;5.10;71.20;;;;;;5042264;28;20509;-62
2021/01/10 02:17:25;;;;;;;19.75;14.32;;;5.20;70.40;;;;;;5072125;28;20043;-60
2021/01/10 02:20:03;;;;;;;18.37;14.50;;;5.10;70.70;;;;;;5068627;28;20405;-61
2021/01/10 02:22:36;;;;;;;17.80;13.50;;;5.20;70.80;;;;;;5048432;28;20028;-60
2021/01/10 02:25:03;;;;;;;21.77;14.30;;;5.20;71.40;;;;;;5083050;28;20374;-61
2021/01/10 02:27:29;;;;;;;20.37;14.17;;;5.10;70.60;;;;;;5083667;28;20435;-60
2021/01/10 02:29:55;;;;;;;17.30;14.20;;;5.10;70.50;;;;;;5075716;28;20048;-60
2021/01/10 02:32:23;;;;;;;20.27;14.93;;;5.10;70.70;;;;;;5080819;28;20123;-60
2021/01/10 02:34:52;;;;;;;17.27;12.90;;;5.10;69.80;;;;;;5085573;28;20052;-61
2021/01/10 02:37:29;;;;;;;18.10;14.03;;;5.10;70.50;;;;;;5082465;28;20493;-60
2021/01/10 02:40:19;;;;;;;17.67;12.40;;;5.20;69.40;;;;;;5088763;28;20410;-59
2021/01/10 02:43:01;;;;;;;18.93;13.40;;;5.20;68.70;;;;;;5075932;28;20099;-60
2021/01/10 02:45:28;;;;;;;18.53;13.57;;;5.30;68.50;;;;;;5075563;28;20048;-60
2021/01/10 02:47:54;;;;;;;18.33;13.60;;;5.30;69.10;;;;;;5084910;28;20101;-58
2021/01/10 02:50:19;;;;;;;16.33;13.00;;;5.30;69.00;;;;;;5079022;28;20041;-60
2021/01/10 02:52:47;;;;;;;17.70;13.20;;;5.30;69.10;;;;;;5078020;28;20040;-60
2021/01/10 02:55:14;;;;;;;17.37;11.87;;;5.20;67.20;;;;;;5083286;28;20071;-60
2021/01/10 02:57:43;;;;;;;14.83;11.27;;;5.30;68.70;;;;;;5074294;28;20433;-60
2021/01/10 03:00:11;;;;;;;17.80;13.00;;;5.30;67.90;;;;;;5078935;28;20124;-60
2021/01/10 03:02:37;;;;;;;16.97;12.63;;;5.30;68.10;;;;;;5077918;28;20086;-59
2021/01/10 03:05:05;;;;;;;16.73;11.73;;;5.30;68.80;;;;;;5084813;28;20044;-59
2021/01/10 03:07:33;;;;;;;16.60;11.77;;;5.20;67.50;;;;;;5079231;28;20049;-59
2021/01/10 03:09:59;;;;;;;17.03;12.57;;;5.40;68.30;;;;;;5086637;28;20490;-60
2021/01/10 03:12:26;;;;;;;15.83;12.37;;;5.40;69.10;;;;;;5077212;28;20045;-59
2021/01/10 03:15:01;;;;;;;17.67;12.20;;;5.30;68.70;;;;;;5073256;28;20093;-60
2021/01/10 03:17:38;;;;;;;15.97;12.30;;;5.40;67.90;;;;;;5074884;28;20114;-60
2021/01/10 03:20:30;;;;;;;18.03;12.20;;;5.40;68.50;;;;;;5082381;28;20443;-60
2021/01/10 03:22:56;;;;;;;15.17;10.60;;;5.40;67.20;;;;;;5073561;28;20051;-59
2021/01/10 03:25:25;;;;;;;16.03;11.40;;;5.30;68.50;;;;;;5076280;28;20037;-60
2021/01/10 03:27:50;;;;;;;14.07;11.07;;;5.40;68.80;;;;;;5075024;28;20048;-60
2021/01/10 03:30:18;;;;;;;18.10;12.10;;;5.40;68.10;;;;;;5076342;28;20488;-60
2021/01/10 03:32:45;;;;;;;17.00;10.50;;;5.40;68.50;;;;;;5077137;28;20068;-60
2021/01/10 03:35:13;;;;;;;15.07;10.13;;;5.40;68.30;;;;;;5076842;28;20040;-60
2021/01/10 03:37:39;;;;;;;14.50;11.00;;;5.40;68.60;;;;;;5070365;28;20093;-61
2021/01/10 03:40:07;;;;;;;13.10;10.10;;;5.40;68.30;;;;;;5081641;28;20032;-60
2021/01/10 03:42:32;;;;;;;17.10;9.67;;;5.40;67.50;;;;;;5075577;28;20454;-60
2021/01/10 03:44:59;;;;;;;16.40;10.17;;;5.40;67.70;;;;;;5075871;28;20042;-60
2021/01/10 03:47:24;;;;;;;13.87;9.73;;;5.50;67.60;;;;;;5067862;28;20513;-60
2021/01/10 03:49:51;;;;;;;13.17;9.80;;;5.40;67.10;;;;;;5071265;28;20121;-60
2021/01/10 03:52:17;;;;;;;12.90;9.60;;;5.40;67.00;;;;;;5077067;28;20048;-60
2021/01/10 03:54:42;;;;;;;11.63;8.77;;;5.40;66.30;;;;;;5075984;28;20104;-61
2021/01/10 03:57:08;;;;;;;10.57;9.47;;;5.50;67.40;;;;;;5082479;28;20040;-61
2021/01/10 03:59:33;;;;;;;12.70;9.00;;;5.40;66.50;;;;;;5072737;28;20036;-61
2021/01/10 04:01:59;;;;;;;14.10;9.47;;;5.50;66.70;;;;;;5082407;28;20508;-61
2021/01/10 04:04:24;;;;;;;13.90;9.10;;;5.50;66.20;;;;;;5075334;28;20056;-61
2021/01/10 04:06:50;;;;;;;10.80;8.67;;;5.40;65.90;;;;;;5075557;28;20044;-60
2021/01/10 04:09:16;;;;;;;10.90;8.50;;;5.40;66.40;;;;;;5081431;28;20040;-61
2021/01/10 04:11:41;;;;;;;12.03;8.63;;;5.40;66.60;;;;;;5062693;28;20074;-60
2021/01/10 04:14:07;;;;;;;11.50;7.87;;;5.40;66.30;;;;;;5075625;28;20071;-60
2021/01/10 04:16:34;;;;;;;12.70;8.27;;;5.50;67.00;;;;;;5076131;28;20485;-60
2021/01/10 04:18:59;;;;;;;9.13;7.17;;;5.40;65.90;;;;;;5070311;28;20043;-61
2021/01/10 04:21:35;;;;;;;9.43;7.30;;;5.40;66.60;;;;;;5077365;28;20048;-59
2021/01/10 04:24:02;;;;;;;12.53;8.77;;;5.50;65.30;;;;;;5075786;28;20075;-61
2021/01/10 04:26:28;;;;;;;8.50;7.40;;;5.50;65.60;;;;;;5071835;28;20086;-59
2021/01/10 04:28:53;;;;;;;10.17;7.43;;;5.50;66.00;;;;;;5075571;28;20639;-60
2021/01/10 04:31:19;;;;;;;9.80;7.43;;;5.50;67.30;;;;;;5072644;28;20048;-63
2021/01/10 04:33:45;;;;;;;9.73;8.03;;;5.40;67.20;;;;;;5081702;28;20556;-60
2021/01/10 04:36:11;;;;;;;9.33;7.40;;;5.40;66.00;;;;;;5073457;28;20049;-60
2021/01/10 04:38:36;;;;;;;9.13;7.77;;;5.50;66.50;;;;;;5079070;28;20039;-61
2021/01/10 04:41:03;;;;;;;9.77;7.87;;;5.50;65.40;;;;;;5074154;28;20048;-60
2021/01/10 04:43:28;;;;;;;11.07;7.50;;;5.50;65.70;;;;;;5073460;28;20045;-60
2021/01/10 04:45:56;;;;;;;9.20;7.27;;;5.40;63.80;;;;;;5068425;28;20043;-62
2021/01/10 04:48:22;;;;;;;10.67;7.37;;;5.40;65.40;;;;;;5075908;28;20036;-61
2021/01/10 04:50:48;;;;;;;9.27;7.10;;;5.50;66.30;;;;;;5069297;28;20040;-61
2021/01/10 04:53:19;;;;;;;9.57;7.20;;;5.40;65.70;;;;;;5073602;28;20070;-61
2021/01/10 04:55:46;;;;;;;10.43;7.23;;;5.40;65.00;;;;;;5078837;28;20098;-61
2021/01/10 04:58:13;;;;;;;9.77;7.50;;;5.30;65.40;;;;;;5077042;28;20075;-61
2021/01/10 05:00:40;;;;;;;12.60;7.63;;;5.40;65.80;;;;;;5074833;28;20032;-61
2021/01/10 05:03:18;;;;;;;10.97;7.33;;;5.30;66.70;;;;;;5076094;28;20045;-60
2021/01/10 05:05:43;;;;;;;9.60;6.20;;;5.30;65.80;;;;;;5073793;28;20063;-61
2021/01/10 05:08:11;;;;;;;10.10;6.40;;;5.30;66.30;;;;;;5077701;28;20037;-60
2021/01/10 05:10:38;;;;;;;10.30;7.13;;;5.20;65.50;;;;;;5063748;28;20447;-59
2021/01/10 05:13:04;;;;;;;9.57;6.33;;;5.30;65.30;;;;;;5077690;28;20044;-60
2021/01/10 05:15:30;;;;;;;8.60;6.13;;;5.30;65.30;;;;;;5063747;28;20105;-59
2021/01/10 05:17:56;;;;;;;8.90;6.70;;;5.30;65.60;;;;;;5074618;28;20424;-61
2021/01/10 05:20:29;;;;;;;7.90;6.00;;;5.30;65.20;;;;;;5076540;28;20555;-60
2021/01/10 05:22:55;;;;;;;10.30;6.93;;;5.30;64.40;;;;;;5072380;28;20497;-60
2021/01/10 05:25:21;;;;;;;9.93;6.27;;;5.30;65.00;;;;;;5075838;28;20105;-60
2021/01/10 05:27:48;;;;;;;8.13;5.80;;;5.30;65.80;;;;;;5078379;28;20028;-59
2021/01/10 05:30:15;;;;;;;11.67;7.00;;;5.40;65.50;;;;;;5076145;28;20071;-61
2021/01/10 05:32:41;;;;;;;9.83;6.03;;;5.40;64.80;;;;;;5071391;28;20074;-59
2021/01/10 05:35:07;;;;;;;9.13;5.70;;;5.40;65.00;;;;;;5072249;28;20068;-59
2021/01/10 05:37:33;;;;;;;8.70;6.43;;;5.40;66.00;;;;;;5072551;28;20412;-60
2021/01/10 05:39:59;;;;;;;7.60;6.27;;;5.40;64.70;;;;;;5077304;28;20131;-60
2021/01/10 05:42:32;;;;;;;7.20;5.97;;;5.40;65.20;;;;;;5072560;28;20044;-61
2021/01/10 05:44:58;;;;;;;10.20;6.47;;;5.40;64.80;;;;;;5074008;28;20040;-60
2021/01/10 05:47:36;;;;;;;7.40;5.73;;;5.40;63.60;;;;;;5071632;28;20041;-61
2021/01/10 05:50:02;;;;;;;7.77;5.73;;;5.40;66.00;;;;;;5063896;28;20040;-60
2021/01/10 05:52:28;;;;;;;9.10;6.03;;;5.50;65.30;;;;;;5078104;28;20134;-59
2021/01/10 05:54:54;;;;;;;9.83;6.47;;;5.50;65.70;;;;;;5072378;28;20051;-60
2021/01/10 05:57:30;;;;;;;6.60;5.83;;;5.50;66.20;;;;;;5074528;28;20533;-60
2021/01/10 05:59:56;;;;;;;9.53;5.90;;;5.50;66.20;;;;;;5069199;28;20045;-61
2021/01/10 06:02:32;;;;;;;8.90;5.93;;;5.50;66.70;;;;;;5080618;28;20466;-61
2021/01/10 06:05:18;;;;;;;7.33;5.93;;;5.50;66.80;;;;;;5072119;28;20545;-60
2021/01/10 06:07:48;;;;;;;8.30;6.00;;;5.50;66.80;;;;;;5066324;28;20036;-60
2021/01/10 06:10:27;;;;;;;7.40;5.90;;;5.50;66.60;;;;;;5067973;28;20036;-61
2021/01/10 06:13:02;;;;;;;8.03;6.27;;;5.50;66.10;;;;;;5071259;28;20040;-61
2021/01/10 06:15:32;;;;;;;8.83;5.57;;;5.60;67.80;;;;;;5059231;28;20521;-58
2021/01/10 06:18:01;;;;;;;7.03;5.77;;;5.50;67.50;;;;;;5078766;28;20052;-61
2021/01/10 06:20:28;;;;;;;9.13;6.53;;;5.60;67.20;;;;;;5074817;28;20101;-61
2021/01/10 06:23:00;;;;;;;7.00;5.77;;;5.50;66.70;;;;;;5078016;28;20047;-61
2021/01/10 06:25:31;;;;;;;8.53;6.27;;;5.50;67.90;;;;;;5073440;28;20039;-61
2021/01/10 06:28:07;;;;;;;7.17;5.73;;;5.50;67.60;;;;;;5070825;28;20074;-61
2021/01/10 06:30:35;;;;;;;10.03;5.90;;;5.50;67.10;;;;;;5071357;28;20028;-60
2021/01/10 06:33:11;;;;;;;9.57;6.40;;;5.50;67.00;;;;;;5080430;28;20431;-60
2021/01/10 06:35:39;;;;;;;10.87;7.67;;;5.40;66.60;;;;;;5072189;28;20505;-61
2021/01/10 06:38:06;;;;;;;10.63;7.93;;;5.40;67.90;;;;;;5072062;28;20490;-61
2021/01/10 06:40:34;;;;;;;11.33;8.87;;;5.40;69.40;;;;;;5056542;28;20060;-61
2021/01/10 06:43:04;;;;;;;14.07;9.57;;;5.30;69.00;;;;;;5075461;28;20540;-60
2021/01/10 06:45:38;;;;;;;11.90;9.23;;;5.30;69.40;;;;;;5068274;28;20090;-60
2021/01/10 06:48:05;;;;;;;14.63;8.85;;;5.30;70.40;;;;;;5076549;28;20044;-59
2021/01/10 06:50:34;;;;;;;12.07;8.77;;;5.20;70.50;;;;;;5074612;28;20036;-60
2021/01/10 06:53:13;;;;;;;11.47;8.63;;;5.20;69.80;;;;;;5075859;28;20082;-60
2021/01/10 06:55:40;;;;;;;12.03;8.23;;;5.10;69.50;;;;;;5073787;28;20052;-61
2021/01/10 06:58:09;;;;;;;10.60;8.70;;;4.90;70.30;;;;;;5087093;28;20040;-60
2021/01/10 07:00:54;;;;;;;13.43;8.37;;;5.00;70.50;;;;;;5072676;28;20090;-60
2021/01/10 07:03:20;;;;;;;;;;;5.00;69.80;;;;;;5078635;28;20131;-61
2021/01/10 07:06:11;;;;;;;10.90;7.90;;;4.80;69.70;;;;;;5078623;28;20011;-60
2021/01/10 07:08:52;;;;;;;10.07;7.70;;;4.80;70.40;;;;;;5058407;28;20430;-61
2021/01/10 07:11:21;;;;;;;10.53;7.57;;;4.90;70.30;;;;;;5074167;28;20089;-61
2021/01/10 07:14:12;;;;;;;14.67;8.70;;;4.90;69.20;;;;;;5078528;28;20040;-61
2021/01/10 07:16:44;;;;;;;11.33;8.33;;;4.90;69.00;;;;;;5048149;28;20116;-60
2021/01/10 07:19:13;;;;;;;11.53;7.63;;;4.70;69.30;;;;;;5081790;28;20036;-60
2021/01/10 07:21:40;;;;;;;9.53;7.53;;;4.80;69.40;;;;;;5073636;28;20086;-60
2021/01/10 07:24:19;;;;;;;10.97;7.37;;;4.80;69.20;;;;;;5060951;28;20586;-60
2021/01/10 07:26:59;;;;;;;9.57;7.10;;;4.80;68.90;;;;;;5078863;28;20097;-60
2021/01/10 07:29:41;;;;;;;12.67;7.83;;;4.70;68.90;;;;;;5081308;28;20028;-60
2021/01/10 07:32:09;;;;;;;9.30;7.13;;;4.80;68.40;;;;;;5038965;28;20036;-61
2021/01/10 07:34:55;;;;;;;8.13;5.87;;;4.80;69.00;;;;;;5079717;28;20036;-62
2021/01/10 07:37:23;;;;;;;9.97;6.00;;;4.80;67.20;;;;;;5068180;28;22713;-61
2021/01/10 07:39:57;;;;;;;9.73;7.03;;;4.80;67.90;;;;;;5079953;28;20048;-61
2021/01/10 07:42:28;;;;;;;11.53;6.63;;;4.80;68.60;;;;;;5073319;28;20044;-61
2021/01/10 07:44:56;;;;;;;8.93;5.87;;;4.80;68.20;;;;;;5065005;28;20524;-60
2021/01/10 07:47:33;;;;;;;9.70;6.20;;;4.80;67.60;;;;;;5077773;28;20041;-61
2021/01/10 07:50:07;;;;;;;9.30;6.00;;;4.90;66.60;;;;;;5075567;28;20063;-60
2021/01/10 07:52:42;;;;;;;9.80;6.80;;;4.90;67.70;;;;;;5073669;28;20052;-60
2021/01/10 07:55:20;;;;;;;8.32;6.50;;;4.90;66.50;;;;;;5076284;28;20094;-60
2021/01/10 07:57:52;;;;;;;8.27;6.07;;;5.00;68.10;;;;;;5042165;28;20036;-60
2021/01/10 08:00:28;;;;;;;9.40;5.73;;;5.00;67.40;;;;;;5081063;28;20058;-61
2021/01/10 08:03:02;;;;;;;7.30;6.00;;;5.10;67.00;;;;;;5080615;28;20404;-60
2021/01/10 08:06:06;;;;;;;8.18;6.05;;;5.10;66.90;;;;;;5083719;28;20044;-61
2021/01/10 08:08:41;;;;;;;8.90;6.00;;;5.10;65.90;;;;;;4993606;28;20029;-60
2021/01/10 08:11:08;;;;;;;7.28;5.55;;;5.10;66.50;;;;;;5073901;28;20068;-61
2021/01/10 08:13:38;;;;;;;9.13;6.47;;;5.20;66.20;;;;;;5075053;28;20044;-60
2021/01/10 08:16:27;;;;;;;8.43;6.27;;;5.20;66.20;;;;;;5067908;28;20040;-60
2021/01/10 08:18:53;;;;;;;8.60;6.43;;;5.20;66.10;;;;;;5068478;28;20664;-60
2021/01/10 08:21:19;;;;;;;7.80;5.17;;;5.20;67.40;;;;;;5067855;28;20470;-61
2021/01/10 08:23:53;;;;;;;8.23;5.43;;;5.10;65.90;;;;;;5070861;28;20032;-60
2021/01/10 08:26:19;;;;;;;9.55;5.45;;;5.10;66.50;;;;;;5077587;28;20056;-60
2021/01/10 08:28:50;;;;;;;7.77;5.80;;;5.10;67.00;;;;;;5070786;28;20107;-60
2021/01/10 08:31:19;;;;;;;6.13;5.00;;;5.10;66.30;;;;;;5063379;28;20047;-61
2021/01/10 08:33:45;;;;;;;8.83;5.97;;;5.10;66.70;;;;;;5077300;28;20040;-60
2021/01/10 08:36:21;;;;;;;8.80;6.27;;;5.10;66.30;;;;;;5076248;28;20063;-61
2021/01/10 08:38:50;;;;;;;8.73;5.50;;;5.10;65.60;;;;;;5081767;28;20077;-61
2021/01/10 08:41:25;;;;;;;6.60;5.60;;;5.00;66.20;;;;;;5071743;28;20128;-61
2021/01/10 08:43:57;;;;;;;9.37;6.00;;;5.00;65.70;;;;;;5080596;28;20045;-60
2021/01/10 08:46:25;;;;;;;9.53;6.10;;;5.00;66.10;;;;;;5078446;28;20097;-60
2021/01/10 08:48:50;;;;;;;8.73;6.93;;;5.00;66.10;;;;;;5082896;28;20060;-61
2021/01/10 08:51:42;;;;;;;7.33;5.30;;;5.00;66.40;;;;;;5073031;28;20066;-60
2021/01/10 08:54:10;;;;;;;7.57;5.80;;;5.00;65.30;;;;;;5053407;28;20177;-61
2021/01/10 08:56:36;;;;;;;9.63;6.27;;;4.90;66.50;;;;;;5073112;28;20060;-61
2021/01/10 08:59:03;;;;;;;9.37;6.23;;;5.00;67.10;;;;;;5075454;28;20048;-60
2021/01/10 09:01:29;;;;;;;7.70;6.07;;;5.10;67.00;;;;;;5077005;28;20040;-60
2021/01/10 09:04:14;;;;;;;8.13;5.90;;;5.10;66.50;;;;;;5072824;28;20040;-60
2021/01/10 09:06:55;;;;;;;;;;;5.10;67.50;;;;;;5046985;28;20123;-60
2021/01/10 09:09:46;;;;;;;9.40;6.17;;;5.10;67.80;;;;;;5075664;28;20011;-60
2021/01/10 09:12:21;;;;;;;9.87;6.83;;;5.10;66.50;;;;;;5024487;28;20432;-60
2021/01/10 09:14:55;;;;;;;;;;;5.10;66.90;;;;;;5077966;28;20032;-60
2021/01/10 09:17:26;;;;;;;10.50;6.83;;;4.90;65.70;;;;;;5072867;28;19916;-62
2021/01/10 09:19:59;;;;;;;9.60;6.23;;;4.90;67.20;;;;;;5082548;28;20089;-60
2021/01/10 09:22:33;;;;;;;7.53;5.13;;;5.00;66.60;;;;;;5072500;28;20049;-59
2021/01/10 09:25:16;;;;;;;8.98;6.50;;;5.00;65.40;;;;;;5079237;28;20044;-60
2021/01/10 09:28:09;;;;;;;9.30;5.97;;;5.00;66.40;;;;;;5049975;28;20041;-60
2021/01/10 09:30:42;;;;;;;9.23;6.30;;;5.00;66.00;;;;;;5054425;28;20032;-60
2021/01/10 09:33:08;;;;;;;9.23;6.73;;;5.10;66.20;;;;;;5067966;28;20376;-60
2021/01/10 09:35:37;;;;;;;8.63;6.37;;;5.10;65.90;;;;;;5075643;28;20064;-61
2021/01/10 09:38:11;;;;;;;9.30;6.87;;;5.10;65.30;;;;;;5055996;28;20063;-60
2021/01/10 09:40:37;;;;;;;7.77;6.47;;;5.20;66.40;;;;;;5079323;28;20036;-60
2021/01/10 09:43:02;;;;;;;7.77;6.40;;;5.20;66.30;;;;;;5074397;28;20461;-60
2021/01/10 09:45:36;;;;;;;11.07;7.40;;;5.20;66.90;;;;;;5075511;28;20085;-60
2021/01/10 09:48:13;;;;;;;13.33;7.90;;;5.20;66.40;;;;;;5070078;28;20048;-60
2021/01/10 09:50:38;;;;;;;13.07;7.87;;;5.20;66.70;;;;;;5077070;28;20045;-60
2021/01/10 09:53:04;;;;;;;12.60;8.17;;;5.20;68.40;;;;;;5073093;28;20055;-60
2021/01/10 09:55:44;;;;;;;11.50;7.57;;;5.30;68.90;;;;;;5080872;28;20497;-59
2021/01/10 09:58:14;;;;;;;10.03;7.83;;;5.30;66.80;;;;;;5073709;28;20131;-61
2021/01/10 10:00:55;;;;;;;9.87;7.67;;;5.30;67.50;;;;;;5075537;28;20047;-60
2021/01/10 10:03:21;;;;;;;12.70;8.90;;;5.40;67.20;;;;;;5073638;28;20062;-60
2021/01/10 10:05:57;;;;;;;14.23;8.80;;;5.30;67.10;;;;;;5075246;28;20474;-60
2021/01/10 10:08:23;;;;;;;10.27;8.47;;;5.30;66.60;;;;;;5074519;28;20032;-60
2021/01/10 10:10:49;;;;;;;11.60;8.30;;;5.30;67.00;;;;;;5076307;28;20051;-60
2021/01/10 10:13:23;;;;;;;11.20;8.13;;;5.40;67.20;;;;;;5074247;28;20070;-60
2021/01/10 10:15:53;;;;;;;11.68;8.27;;;5.40;67.30;;;;;;5075739;28;20048;-60
2021/01/10 10:18:26;;;;;;;13.77;8.97;;;5.40;67.00;;;;;;5073013;28;20036;-60
2021/01/10 10:20:52;;;;;;;13.23;8.57;;;5.40;67.60;;;;;;5077215;28;20044;-61
2021/01/10 10:23:18;;;;;;;10.60;8.80;;;5.40;67.20;;;;;;5074518;28;20054;-60
2021/01/10 10:25:47;;;;;;;13.60;8.97;;;5.40;67.70;;;;;;5082070;28;20040;-60
2021/01/10 10:28:13;;;;;;;11.43;8.93;;;5.50;68.50;;;;;;5074093;28;20401;-60
2021/01/10 10:30:39;;;;;;;13.23;9.10;;;5.60;66.80;;;;;;5061931;28;20075;-60
2021/01/10 10:33:06;;;;;;;13.47;8.47;;;5.70;67.80;;;;;;5081345;28;20047;-60
2021/01/10 10:35:32;;;;;;;10.57;7.97;;;5.80;67.10;;;;;;5067991;28;20135;-60
2021/01/10 10:37:58;;;;;;;14.00;8.23;;;5.90;66.00;;;;;;5087298;28;20474;-60
2021/01/10 10:40:24;;;;;;;12.03;8.03;;;6.00;65.70;;;;;;5070467;28;20044;-61
2021/01/10 10:42:50;;;;;;;8.40;7.50;;;6.10;64.60;;;;;;5080756;28;20048;-60
2021/01/10 10:45:16;;;;;;;11.87;7.60;;;6.20;63.60;;;;;;5071492;28;20482;-61
2021/01/10 10:47:42;;;;;;;10.63;7.40;;;6.30;64.10;;;;;;5074806;28;20091;-61
2021/01/10 10:50:09;;;;;;;11.50;8.10;;;6.30;63.10;;;;;;5079225;28;20517;-60
2021/01/10 10:52:36;;;;;;;11.83;7.73;;;6.50;63.20;;;;;;5085367;28;20039;-60
2021/01/10 10:55:02;;;;;;;11.40;8.00;;;6.60;63.70;;;;;;5080717;28;20431;-60
2021/01/10 10:57:28;;;;;;;11.07;7.47;;;6.70;62.70;;;;;;5081352;28;20123;-60
2021/01/10 10:59:53;;;;;;;9.40;7.77;;;6.80;62.40;;;;;;5054029;28;20119;-61
2021/01/10 11:02:19;;;;;;;10.60;8.30;;;7.00;62.40;;;;;;5081711;28;20033;-60
2021/01/10 11:04:45;;;;;;;10.83;8.17;;;7.10;60.40;;;;;;5073677;28;20103;-61
2021/01/10 11:07:12;;;;;;;9.60;7.43;;;7.10;60.60;;;;;;5079583;28;20044;-61
2021/01/10 11:09:38;;;;;;;10.20;9.13;;;7.20;61.00;;;;;;5076563;28;20124;-60
2021/01/10 11:12:04;;;;;;;11.30;8.77;;;7.30;61.10;;;;;;5080071;28;20689;-60
2021/01/10 11:14:30;;;;;;;10.97;8.53;;;7.30;61.00;;;;;;5082784;28;20535;-61
2021/01/10 11:16:55;;;;;;;11.47;8.47;;;7.40;60.60;;;;;;5077297;28;20144;-63
2021/01/10 11:19:21;;;;;;;12.83;8.73;;;7.60;60.00;;;;;;5050117;28;20029;-60
2021/01/10 11:21:51;;;;;;;11.57;8.50;;;7.60;60.40;;;;;;5079191;28;20040;-61
2021/01/10 11:24:17;;;;;;;9.93;6.33;;;7.70;59.80;;;;;;5076701;28;20036;-60
2021/01/10 11:26:45;;;;;;;10.70;7.07;;;7.80;55.70;;;;;;5077570;28;20033;-60
2021/01/10 11:29:12;;;;;;;9.53;6.93;;;7.80;58.20;;;;;;5078136;28;20044;-60
2021/01/10 11:31:39;;;;;;;9.13;6.23;;;7.80;58.60;;;;;;5074895;28;20115;-60
2021/01/10 11:34:10;;;;;;;7.37;5.90;;;7.70;55.00;;;;;;5073822;28;20040;-58
2021/01/10 11:36:39;;;;;;;9.47;5.93;;;7.70;56.50;;;;;;5070153;28;20056;-59
2021/01/10 11:39:05;;;;;;;8.73;6.37;;;7.70;56.70;;;;;;5081688;28;20043;-60
2021/01/10 11:41:31;;;;;;;8.10;5.87;;;7.90;57.20;;;;;;5076309;28;20037;-59
2021/01/10 11:43:56;;;;;;;12.60;6.73;;;7.80;57.30;;;;;;5078950;28;20040;-60
2021/01/10 11:46:23;;;;;;;11.13;7.90;;;7.90;57.50;;;;;;5075088;28;20040;-61
2021/01/10 11:48:49;;;;;;;9.67;7.97;;;7.90;56.60;;;;;;5081240;28;20101;-62
2021/01/10 11:51:16;;;;;;;11.67;7.47;;;7.90;56.60;;;;;;5039946;28;20040;-61
2021/01/10 11:53:43;;;;;;;10.30;7.33;;;7.90;56.10;;;;;;5065102;28;20047;-61
2021/01/10 11:56:09;;;;;;;9.57;7.10;;;7.80;56.10;;;;;;5079750;28;20225;-61
2021/01/10 11:58:38;;;;;;;9.53;7.33;;;7.80;53.80;;;;;;5057637;28;20435;-61
2021/01/10 12:01:03;;;;;;;11.73;7.77;;;7.90;55.10;;;;;;5081808;28;20050;-61
2021/01/10 12:03:29;;;;;;;8.27;6.83;;;7.90;56.70;;;;;;5077863;28;20028;-60
2021/01/10 12:05:54;;;;;;;9.80;7.30;;;7.90;53.50;;;;;;5080319;28;20059;-61
2021/01/10 12:08:23;;;;;;;11.47;7.10;;;7.80;55.30;;;;;;5076799;28;20075;-61
2021/01/10 12:10:50;;;;;;;10.03;6.90;;;7.90;55.20;;;;;;5082507;28;20048;-61
2021/01/10 12:13:17;;;;;;;10.03;6.33;;;8.00;55.80;;;;;;5058735;28;20152;-61
2021/01/10 12:15:45;;;;;;;10.70;7.03;;;7.90;54.30;;;;;;5080182;28;20060;-61
2021/01/10 12:18:11;;;;;;;9.20;6.33;;;7.90;54.40;;;;;;5073841;28;20520;-60
2021/01/10 12:20:36;;;;;;;12.83;7.10;;;7.90;54.00;;;;;;5080880;28;20040;-61
2021/01/10 12:23:03;;;;;;;11.77;7.30;;;7.70;55.60;;;;;;5074229;28;20044;-60
2021/01/10 12:25:29;;;;;;;9.67;7.57;;;7.60;54.70;;;;;;5080633;28;20048;-61
2021/01/10 12:27:55;;;;;;;12.13;7.00;;;7.50;54.80;;;;;;5077607;28;20109;-61
2021/01/10 12:30:22;;;;;;;11.70;8.03;;;7.40;56.00;;;;;;5080674;28;20470;-61
2021/01/10 12:32:48;;;;;;;11.80;7.80;;;7.30;55.40;;;;;;5082077;28;20094;-61
2021/01/10 12:35:18;;;;;;;10.33;7.80;;;7.20;57.10;;;;;;5073949;28;20052;-61
2021/01/10 12:37:45;;;;;;;11.67;7.93;;;7.30;55.80;;;;;;5081107;28;20040;-61
2021/01/10 12:40:12;;;;;;;10.27;7.43;;;7.20;56.40;;;;;;5080274;28;20056;-61
2021/01/10 12:42:38;;;;;;;9.50;7.13;;;7.20;56.40;;;;;;5077958;28;20034;-61
2021/01/10 12:45:08;;;;;;;10.30;7.13;;;7.20;56.10;;;;;;5077837;28;20127;-60
2021/01/10 12:47:34;;;;;;;12.03;7.83;;;7.30;56.50;;;;;;5079892;28;20048;-61
2021/01/10 12:49:59;;;;;;;9.90;7.30;;;7.30;56.60;;;;;;5061000;28;20062;-61
2021/01/10 12:52:25;;;;;;;11.33;8.07;;;7.30;56.10;;;;;;5078911;28;20477;-60
2021/01/10 12:54:51;;;;;;;12.27;8.43;;;7.40;55.60;;;;;;5070305;28;20494;-60
2021/01/10 12:57:17;;;;;;;11.17;7.47;;;7.50;53.30;;;;;;5075483;28;20071;-62
2021/01/10 12:59:43;;;;;;;12.20;8.47;;;7.60;55.40;;;;;;5071611;28;20041;-60
2021/01/10 13:02:09;;;;;;;12.50;8.23;;;7.70;54.50;;;;;;5071819;28;20214;-59